sensor_id;sensor_type;location;lat;lon;timestamp;temperature;humidity
74822;DHT22;63353;48.702;8.884;2023-07-22T00:00:26;12.80;99.90
74822;DHT22;63353;48.702;8.884;2023-07-22T00:02:54;12.90;99.90
74822;DHT22;63353;48.702;8.884;2023-07-22T00:05:20;12.90;99.90
74822;DHT22;63353;48.702;8.884;2023-07-22T00:07:49;12.80;99.90
74822;DHT22;63353;48.702;8.884;2023-07-22T00:10:16;12.70;99.90
74822;DHT22;63353;48.702;8.884;2023-07-22T00:12:41;12.60;99.90
74822;DHT22;63353;48.702;8.884;2023-07-22T00:15:08;12.50;99.90
74822;DHT22;63353;48.702;8.884;2023-07-22T00:17:37;12.60;99.90
74822;DHT22;63353;48.702;8.884;2023-07-22T00:20:05;12.40;99.90
74822;DHT22;63353;48.702;8.884;2023-07-22T00:22:38;12.30;99.90
74822;DHT22;63353;48.702;8.884;2023-07-22T00:25:09;12.40;99.90
74822;DHT22;63353;48.702;8.884;2023-07-22T00:27:58;12.30;99.90
74822;DHT22;63353;48.702;8.884;2023-07-22T00:30:26;12.40;99.90
74822;DHT22;63353;48.702;8.884;2023-07-22T00:33:01;12.30;99.90
74822;DHT22;63353;48.702;8.884;2023-07-22T00:35:31;12.20;99.90
74822;DHT22;63353;48.702;8.884;2023-07-22T00:38:00;12.10;99.90
74822;DHT22;63353;48.702;8.884;2023-07-22T00:40:27;12.10;99.90
74822;DHT22;63353;48.702;8.884;2023-07-22T00:42:56;12.10;99.90
74822;DHT22;63353;48.702;8.884;2023-07-22T00:45:25;12.00;99.90
74822;DHT22;63353;48.702;8.884;2023-07-22T00:47:54;11.90;99.90
74822;DHT22;63353;48.702;8.884;2023-07-22T00:50:24;12.10;99.90
74822;DHT22;63353;48.702;8.884;2023-07-22T00:52:51;12.00;99.90
74822;DHT22;63353;48.702;8.884;2023-07-22T00:55:24;12.20;99.90
74822;DHT22;63353;48.702;8.884;2023-07-22T00:57:56;12.10;99.90
74822;DHT22;63353;48.702;8.884;2023-07-22T01:00:22;12.30;99.90
74822;DHT22;63353;48.702;8.884;2023-07-22T01:02:56;12.30;99.90
74822;DHT22;63353;48.702;8.884;2023-07-22T01:05:22;12.20;99.90
74822;DHT22;63353;48.702;8.884;2023-07-22T01:07:51;12.20;99.90
74822;DHT22;63353;48.702;8.884;2023-07-22T01:10:21;12.20;99.90
74822;DHT22;63353;48.702;8.884;2023-07-22T01:12:56;12.10;99.90
74822;DHT22;63353;48.702;8.884;2023-07-22T01:15:34;12.10;99.90
74822;DHT22;63353;48.702;8.884;2023-07-22T01:18:02;12.10;99.90
74822;DHT22;63353;48.702;8.884;2023-07-22T01:20:31;12.10;99.90
74822;DHT22;63353;48.702;8.884;2023-07-22T01:22:57;12.20;99.90
74822;DHT22;63353;48.702;8.884;2023-07-22T01:25:24;12.20;99.90
74822;DHT22;63353;48.702;8.884;2023-07-22T01:27:59;12.20;99.90
74822;DHT22;63353;48.702;8.884;2023-07-22T01:30:25;12.10;99.90
74822;DHT22;63353;48.702;8.884;2023-07-22T01:32:55;12.00;99.90
74822;DHT22;63353;48.702;8.884;2023-07-22T01:35:21;11.90;99.90
74822;DHT22;63353;48.702;8.884;2023-07-22T01:37:53;11.80;99.90
74822;DHT22;63353;48.702;8.884;2023-07-22T01:40:18;11.60;99.90
74822;DHT22;63353;48.702;8.884;2023-07-22T01:42:44;11.50;99.90
74822;DHT22;63353;48.702;8.884;2023-07-22T01:45:10;11.40;99.90
74822;DHT22;63353;48.702;8.884;2023-07-22T01:47:37;11.30;99.90
74822;DHT22;63353;48.702;8.884;2023-07-22T01:50:04;11.10;99.90
74822;DHT22;63353;48.702;8.884;2023-07-22T01:52:30;11.00;99.90
74822;DHT22;63353;48.702;8.884;2023-07-22T01:54:55;11.00;99.90
74822;DHT22;63353;48.702;8.884;2023-07-22T01:57:24;11.10;99.90
74822;DHT22;63353;48.702;8.884;2023-07-22T01:59:50;11.20;99.90
74822;DHT22;63353;48.702;8.884;2023-07-22T02:02:16;11.20;99.90
74822;DHT22;63353;48.702;8.884;2023-07-22T02:04:44;11.10;99.90
74822;DHT22;63353;48.702;8.884;2023-07-22T02:07:16;11.10;99.90
74822;DHT22;63353;48.702;8.884;2023-07-22T02:09:50;11.00;99.90
74822;DHT22;63353;48.702;8.884;2023-07-22T02:12:18;11.00;99.90
74822;DHT22;63353;48.702;8.884;2023-07-22T02:14:46;11.10;99.90
74822;DHT22;63353;48.702;8.884;2023-07-22T02:17:12;11.10;99.90
74822;DHT22;63353;48.702;8.884;2023-07-22T02:19:37;11.00;99.90
74822;DHT22;63353;48.702;8.884;2023-07-22T02:22:04;11.00;99.90
74822;DHT22;63353;48.702;8.884;2023-07-22T02:24:30;11.00;99.90
74822;DHT22;63353;48.702;8.884;2023-07-22T02:26:56;11.00;99.90
74822;DHT22;63353;48.702;8.884;2023-07-22T02:29:28;11.00;99.90
74822;DHT22;63353;48.702;8.884;2023-07-22T02:32:00;11.00;99.90
74822;DHT22;63353;48.702;8.884;2023-07-22T02:34:25;11.00;99.90
74822;DHT22;63353;48.702;8.884;2023-07-22T02:36:51;11.10;99.90
74822;DHT22;63353;48.702;8.884;2023-07-22T02:39:20;11.20;99.90
74822;DHT22;63353;48.702;8.884;2023-07-22T02:41:51;11.30;99.90
74822;DHT22;63353;48.702;8.884;2023-07-22T02:44:23;11.50;99.90
74822;DHT22;63353;48.702;8.884;2023-07-22T02:46:48;11.60;99.90
74822;DHT22;63353;48.702;8.884;2023-07-22T02:49:14;11.60;99.90
74822;DHT22;63353;48.702;8.884;2023-07-22T02:51:39;11.50;99.90
74822;DHT22;63353;48.702;8.884;2023-07-22T02:54:05;11.40;99.90
74822;DHT22;63353;48.702;8.884;2023-07-22T02:56:31;11.40;99.90
74822;DHT22;63353;48.702;8.884;2023-07-22T02:58:56;11.50;99.90
74822;DHT22;63353;48.702;8.884;2023-07-22T03:01:29;11.40;99.90
74822;DHT22;63353;48.702;8.884;2023-07-22T03:03:55;11.50;99.90
74822;DHT22;63353;48.702;8.884;2023-07-22T03:06:20;11.50;99.90
74822;DHT22;63353;48.702;8.884;2023-07-22T03:08:46;11.50;99.90
74822;DHT22;63353;48.702;8.884;2023-07-22T03:11:16;11.40;99.90
74822;DHT22;63353;48.702;8.884;2023-07-22T03:13:42;11.30;99.90
74822;DHT22;63353;48.702;8.884;2023-07-22T03:16:14;11.30;99.90
74822;DHT22;63353;48.702;8.884;2023-07-22T03:18:43;11.10;99.90
74822;DHT22;63353;48.702;8.884;2023-07-22T03:21:10;11.00;99.90
74822;DHT22;63353;48.702;8.884;2023-07-22T03:23:35;10.90;99.90
74822;DHT22;63353;48.702;8.884;2023-07-22T03:26:01;10.90;99.90
74822;DHT22;63353;48.702;8.884;2023-07-22T03:28:26;10.80;99.90
74822;DHT22;63353;48.702;8.884;2023-07-22T03:30:52;10.80;99.90
74822;DHT22;63353;48.702;8.884;2023-07-22T03:33:18;10.80;99.90
74822;DHT22;63353;48.702;8.884;2023-07-22T03:35:47;10.70;99.90
74822;DHT22;63353;48.702;8.884;2023-07-22T03:38:13;10.70;99.90
74822;DHT22;63353;48.702;8.884;2023-07-22T03:40:38;10.70;99.90
74822;DHT22;63353;48.702;8.884;2023-07-22T03:43:05;10.60;99.90
74822;DHT22;63353;48.702;8.884;2023-07-22T03:45:31;10.60;99.90
74822;DHT22;63353;48.702;8.884;2023-07-22T03:47:58;10.60;99.90
74822;DHT22;63353;48.702;8.884;2023-07-22T03:50:25;10.60;99.90
74822;DHT22;63353;48.702;8.884;2023-07-22T03:52:51;10.50;99.90
74822;DHT22;63353;48.702;8.884;2023-07-22T03:55:17;10.50;99.90
74822;DHT22;63353;48.702;8.884;2023-07-22T03:57:45;10.40;99.90
74822;DHT22;63353;48.702;8.884;2023-07-22T04:00:11;10.30;99.90
74822;DHT22;63353;48.702;8.884;2023-07-22T04:02:46;10.30;99.90
74822;DHT22;63353;48.702;8.884;2023-07-22T04:05:11;10.40;99.90
74822;DHT22;63353;48.702;8.884;2023-07-22T04:07:37;10.40;99.90
74822;DHT22;63353;48.702;8.884;2023-07-22T04:10:03;10.40;99.90
74822;DHT22;63353;48.702;8.884;2023-07-22T04:12:29;10.50;99.90
74822;DHT22;63353;48.702;8.884;2023-07-22T04:14:55;10.50;99.90
74822;DHT22;63353;48.702;8.884;2023-07-22T04:17:23;10.60;99.90
74822;DHT22;63353;48.702;8.884;2023-07-22T04:19:51;10.70;99.90
74822;DHT22;63353;48.702;8.884;2023-07-22T04:22:17;10.80;99.90
74822;DHT22;63353;48.702;8.884;2023-07-22T04:24:45;10.90;99.90
74822;DHT22;63353;48.702;8.884;2023-07-22T04:27:14;11.00;99.90
74822;DHT22;63353;48.702;8.884;2023-07-22T04:29:40;11.00;99.90
74822;DHT22;63353;48.702;8.884;2023-07-22T04:32:13;11.10;99.90
74822;DHT22;63353;48.702;8.884;2023-07-22T04:34:38;11.10;99.90
74822;DHT22;63353;48.702;8.884;2023-07-22T04:37:05;11.10;99.90
74822;DHT22;63353;48.702;8.884;2023-07-22T04:39:30;11.10;99.90
74822;DHT22;63353;48.702;8.884;2023-07-22T04:41:56;11.10;99.90
74822;DHT22;63353;48.702;8.884;2023-07-22T04:44:22;11.10;99.90
74822;DHT22;63353;48.702;8.884;2023-07-22T04:46:49;11.20;99.90
74822;DHT22;63353;48.702;8.884;2023-07-22T04:49:15;11.20;99.90
74822;DHT22;63353;48.702;8.884;2023-07-22T04:51:49;11.20;99.90
74822;DHT22;63353;48.702;8.884;2023-07-22T04:54:21;11.20;99.90
74822;DHT22;63353;48.702;8.884;2023-07-22T04:56:46;11.40;99.90
74822;DHT22;63353;48.702;8.884;2023-07-22T04:59:12;11.50;99.90
74822;DHT22;63353;48.702;8.884;2023-07-22T05:01:40;11.70;99.90
74822;DHT22;63353;48.702;8.884;2023-07-22T05:04:05;11.70;99.90
74822;DHT22;63353;48.702;8.884;2023-07-22T05:06:31;11.90;99.90
74822;DHT22;63353;48.702;8.884;2023-07-22T05:08:57;12.00;99.90
74822;DHT22;63353;48.702;8.884;2023-07-22T05:11:26;12.10;99.90
74822;DHT22;63353;48.702;8.884;2023-07-22T05:13:51;12.20;99.90
74822;DHT22;63353;48.702;8.884;2023-07-22T05:16:17;12.30;99.90
74822;DHT22;63353;48.702;8.884;2023-07-22T05:18:45;12.40;99.90
74822;DHT22;63353;48.702;8.884;2023-07-22T05:21:17;12.50;99.90
74822;DHT22;63353;48.702;8.884;2023-07-22T05:23:43;12.60;99.90
74822;DHT22;63353;48.702;8.884;2023-07-22T05:26:08;12.70;99.90
74822;DHT22;63353;48.702;8.884;2023-07-22T05:28:35;12.80;99.90
74822;DHT22;63353;48.702;8.884;2023-07-22T05:31:01;12.90;99.90
74822;DHT22;63353;48.702;8.884;2023-07-22T05:33:26;13.00;99.90
74822;DHT22;63353;48.702;8.884;2023-07-22T05:35:56;13.10;99.90
74822;DHT22;63353;48.702;8.884;2023-07-22T05:38:22;13.30;99.90
74822;DHT22;63353;48.702;8.884;2023-07-22T05:40:47;13.40;99.90
74822;DHT22;63353;48.702;8.884;2023-07-22T05:43:14;13.50;99.90
74822;DHT22;63353;48.702;8.884;2023-07-22T05:45:40;13.60;99.90
74822;DHT22;63353;48.702;8.884;2023-07-22T05:48:06;13.80;99.90
74822;DHT22;63353;48.702;8.884;2023-07-22T05:50:40;13.90;99.90
74822;DHT22;63353;48.702;8.884;2023-07-22T05:53:06;14.00;99.90
74822;DHT22;63353;48.702;8.884;2023-07-22T05:55:32;14.10;99.90
74822;DHT22;63353;48.702;8.884;2023-07-22T05:57:58;14.10;99.90
74822;DHT22;63353;48.702;8.884;2023-07-22T06:00:24;14.20;99.90
74822;DHT22;63353;48.702;8.884;2023-07-22T06:02:50;14.30;99.90
74822;DHT22;63353;48.702;8.884;2023-07-22T06:05:16;14.50;99.90
74822;DHT22;63353;48.702;8.884;2023-07-22T06:07:41;14.60;99.90
74822;DHT22;63353;48.702;8.884;2023-07-22T06:10:07;14.70;99.90
74822;DHT22;63353;48.702;8.884;2023-07-22T06:12:34;14.90;99.90
74822;DHT22;63353;48.702;8.884;2023-07-22T06:15:00;15.00;99.90
74822;DHT22;63353;48.702;8.884;2023-07-22T06:17:26;15.10;99.90
74822;DHT22;63353;48.702;8.884;2023-07-22T06:19:52;15.20;99.90
74822;DHT22;63353;48.702;8.884;2023-07-22T06:22:20;15.40;99.90
74822;DHT22;63353;48.702;8.884;2023-07-22T06:24:52;15.50;99.90
74822;DHT22;63353;48.702;8.884;2023-07-22T06:27:21;15.70;99.90
74822;DHT22;63353;48.702;8.884;2023-07-22T06:29:52;15.80;99.90
74822;DHT22;63353;48.702;8.884;2023-07-22T06:32:21;16.00;99.90
74822;DHT22;63353;48.702;8.884;2023-07-22T06:34:46;16.10;99.90
74822;DHT22;63353;48.702;8.884;2023-07-22T06:37:18;16.30;99.90
74822;DHT22;63353;48.702;8.884;2023-07-22T06:39:50;16.40;99.90
74822;DHT22;63353;48.702;8.884;2023-07-22T06:42:16;16.50;99.90
74822;DHT22;63353;48.702;8.884;2023-07-22T06:44:43;16.70;99.90
74822;DHT22;63353;48.702;8.884;2023-07-22T06:47:08;16.80;99.90
74822;DHT22;63353;48.702;8.884;2023-07-22T06:49:34;17.00;99.90
74822;DHT22;63353;48.702;8.884;2023-07-22T06:52:00;17.20;99.90
74822;DHT22;63353;48.702;8.884;2023-07-22T06:54:30;17.40;99.90
74822;DHT22;63353;48.702;8.884;2023-07-22T06:56:55;17.60;99.90
74822;DHT22;63353;48.702;8.884;2023-07-22T06:59:21;17.80;99.90
74822;DHT22;63353;48.702;8.884;2023-07-22T07:01:47;17.90;99.90
74822;DHT22;63353;48.702;8.884;2023-07-22T07:04:12;18.00;99.90
74822;DHT22;63353;48.702;8.884;2023-07-22T07:06:38;18.20;99.90
74822;DHT22;63353;48.702;8.884;2023-07-22T07:09:04;18.40;99.90
74822;DHT22;63353;48.702;8.884;2023-07-22T07:11:31;18.60;99.90
74822;DHT22;63353;48.702;8.884;2023-07-22T07:13:57;18.90;99.90
74822;DHT22;63353;48.702;8.884;2023-07-22T07:16:28;19.00;99.90
74822;DHT22;63353;48.702;8.884;2023-07-22T07:18:54;19.10;99.90
74822;DHT22;63353;48.702;8.884;2023-07-22T07:21:21;19.20;99.90
74822;DHT22;63353;48.702;8.884;2023-07-22T07:23:47;19.20;99.90
74822;DHT22;63353;48.702;8.884;2023-07-22T07:26:20;19.40;99.90
74822;DHT22;63353;48.702;8.884;2023-07-22T07:28:47;19.40;99.90
74822;DHT22;63353;48.702;8.884;2023-07-22T07:31:13;19.50;99.90
74822;DHT22;63353;48.702;8.884;2023-07-22T07:33:39;19.60;99.90
74822;DHT22;63353;48.702;8.884;2023-07-22T07:36:05;19.70;99.90
74822;DHT22;63353;48.702;8.884;2023-07-22T07:38:31;20.00;99.90
74822;DHT22;63353;48.702;8.884;2023-07-22T07:40:58;20.20;99.90
74822;DHT22;63353;48.702;8.884;2023-07-22T07:43:24;20.00;99.90
74822;DHT22;63353;48.702;8.884;2023-07-22T07:45:50;20.00;99.90
74822;DHT22;63353;48.702;8.884;2023-07-22T07:48:36;20.00;99.90
74822;DHT22;63353;48.702;8.884;2023-07-22T07:51:01;20.10;99.90
74822;DHT22;63353;48.702;8.884;2023-07-22T07:53:28;20.10;99.90
74822;DHT22;63353;48.702;8.884;2023-07-22T07:55:57;20.30;99.90
74822;DHT22;63353;48.702;8.884;2023-07-22T07:58:25;20.60;99.90
74822;DHT22;63353;48.702;8.884;2023-07-22T08:00:51;20.60;99.90
74822;DHT22;63353;48.702;8.884;2023-07-22T08:03:24;20.80;99.90
74822;DHT22;63353;48.702;8.884;2023-07-22T08:05:49;21.00;99.90
74822;DHT22;63353;48.702;8.884;2023-07-22T08:08:18;21.10;99.90
74822;DHT22;63353;48.702;8.884;2023-07-22T08:10:43;21.20;99.90
74822;DHT22;63353;48.702;8.884;2023-07-22T08:13:10;21.30;99.90
74822;DHT22;63353;48.702;8.884;2023-07-22T08:15:36;21.40;99.90
74822;DHT22;63353;48.702;8.884;2023-07-22T08:18:02;21.30;99.90
74822;DHT22;63353;48.702;8.884;2023-07-22T08:20:29;21.50;99.90
74822;DHT22;63353;48.702;8.884;2023-07-22T08:22:56;21.60;99.90
74822;DHT22;63353;48.702;8.884;2023-07-22T08:25:24;22.00;99.90
74822;DHT22;63353;48.702;8.884;2023-07-22T08:27:52;22.50;99.90
74822;DHT22;63353;48.702;8.884;2023-07-22T08:30:18;22.80;99.90
74822;DHT22;63353;48.702;8.884;2023-07-22T08:32:43;22.70;99.90
74822;DHT22;63353;48.702;8.884;2023-07-22T08:35:09;22.00;99.90
74822;DHT22;63353;48.702;8.884;2023-07-22T08:37:35;21.60;99.90
74822;DHT22;63353;48.702;8.884;2023-07-22T08:40:01;21.40;99.90
74822;DHT22;63353;48.702;8.884;2023-07-22T08:42:28;21.30;99.90
74822;DHT22;63353;48.702;8.884;2023-07-22T08:45:04;21.30;99.90
74822;DHT22;63353;48.702;8.884;2023-07-22T08:47:32;21.20;99.90
74822;DHT22;63353;48.702;8.884;2023-07-22T08:50:01;21.20;99.90
74822;DHT22;63353;48.702;8.884;2023-07-22T08:52:28;21.30;99.90
74822;DHT22;63353;48.702;8.884;2023-07-22T08:54:54;21.30;99.90
74822;DHT22;63353;48.702;8.884;2023-07-22T08:57:21;21.30;99.90
74822;DHT22;63353;48.702;8.884;2023-07-22T08:59:47;21.40;99.90
74822;DHT22;63353;48.702;8.884;2023-07-22T09:02:13;21.40;99.90
74822;DHT22;63353;48.702;8.884;2023-07-22T09:04:46;21.30;99.90
74822;DHT22;63353;48.702;8.884;2023-07-22T09:07:12;21.40;99.90
74822;DHT22;63353;48.702;8.884;2023-07-22T09:09:41;21.40;99.90
74822;DHT22;63353;48.702;8.884;2023-07-22T09:12:08;21.80;99.90
74822;DHT22;63353;48.702;8.884;2023-07-22T09:14:38;21.60;99.90
74822;DHT22;63353;48.702;8.884;2023-07-22T09:17:07;21.60;99.90
74822;DHT22;63353;48.702;8.884;2023-07-22T09:19:32;21.90;99.90
74822;DHT22;63353;48.702;8.884;2023-07-22T09:21:58;22.10;99.90
74822;DHT22;63353;48.702;8.884;2023-07-22T09:24:31;22.10;99.90
74822;DHT22;63353;48.702;8.884;2023-07-22T09:27:00;21.70;99.90
74822;DHT22;63353;48.702;8.884;2023-07-22T09:29:39;21.60;99.90
74822;DHT22;63353;48.702;8.884;2023-07-22T09:32:17;22.00;99.90
74822;DHT22;63353;48.702;8.884;2023-07-22T09:34:55;22.30;99.90
74822;DHT22;63353;48.702;8.884;2023-07-22T09:37:21;22.80;99.90
74822;DHT22;63353;48.702;8.884;2023-07-22T09:39:53;23.40;99.90
74822;DHT22;63353;48.702;8.884;2023-07-22T09:42:25;23.60;99.90
74822;DHT22;63353;48.702;8.884;2023-07-22T09:44:51;23.50;99.90
74822;DHT22;63353;48.702;8.884;2023-07-22T09:47:16;23.30;99.90
74822;DHT22;63353;48.702;8.884;2023-07-22T09:49:46;23.30;99.90
74822;DHT22;63353;48.702;8.884;2023-07-22T09:52:17;23.00;99.90
74822;DHT22;63353;48.702;8.884;2023-07-22T09:54:47;23.20;99.90
74822;DHT22;63353;48.702;8.884;2023-07-22T09:57:17;23.50;99.90
74822;DHT22;63353;48.702;8.884;2023-07-22T09:59:43;23.50;99.90
74822;DHT22;63353;48.702;8.884;2023-07-22T10:02:11;23.50;99.90
74822;DHT22;63353;48.702;8.884;2023-07-22T10:04:40;23.40;99.90
74822;DHT22;63353;48.702;8.884;2023-07-22T10:07:07;23.60;99.90
74822;DHT22;63353;48.702;8.884;2023-07-22T10:09:33;23.50;99.90
74822;DHT22;63353;48.702;8.884;2023-07-22T10:12:02;23.50;99.90
74822;DHT22;63353;48.702;8.884;2023-07-22T10:14:29;23.80;99.90
74822;DHT22;63353;48.702;8.884;2023-07-22T10:16:55;24.30;99.90
74822;DHT22;63353;48.702;8.884;2023-07-22T10:19:24;24.60;99.90
74822;DHT22;63353;48.702;8.884;2023-07-22T10:21:51;24.70;99.90
74822;DHT22;63353;48.702;8.884;2023-07-22T10:24:18;24.80;99.90
74822;DHT22;63353;48.702;8.884;2023-07-22T10:26:45;24.80;99.90
74822;DHT22;63353;48.702;8.884;2023-07-22T10:29:18;25.10;99.90
74822;DHT22;63353;48.702;8.884;2023-07-22T10:31:45;25.00;99.90
74822;DHT22;63353;48.702;8.884;2023-07-22T10:34:10;25.30;99.90
74822;DHT22;63353;48.702;8.884;2023-07-22T10:36:36;24.70;99.90
74822;DHT22;63353;48.702;8.884;2023-07-22T10:39:02;24.20;99.90
74822;DHT22;63353;48.702;8.884;2023-07-22T10:41:28;23.50;99.90
74822;DHT22;63353;48.702;8.884;2023-07-22T10:43:55;23.20;99.90
74822;DHT22;63353;48.702;8.884;2023-07-22T10:46:38;23.20;99.90
74822;DHT22;63353;48.702;8.884;2023-07-22T10:49:24;22.90;99.90
74822;DHT22;63353;48.702;8.884;2023-07-22T10:51:56;22.80;99.90
74822;DHT22;63353;48.702;8.884;2023-07-22T10:54:33;22.60;99.90
74822;DHT22;63353;48.702;8.884;2023-07-22T10:57:03;22.80;99.90
74822;DHT22;63353;48.702;8.884;2023-07-22T10:59:32;23.30;99.90
74822;DHT22;63353;48.702;8.884;2023-07-22T11:02:01;24.00;99.90
74822;DHT22;63353;48.702;8.884;2023-07-22T11:04:27;24.40;99.90
74822;DHT22;63353;48.702;8.884;2023-07-22T11:07:03;24.10;99.90
74822;DHT22;63353;48.702;8.884;2023-07-22T11:11:56;23.30;99.90
74822;DHT22;63353;48.702;8.884;2023-07-22T11:14:25;22.90;99.90
74822;DHT22;63353;48.702;8.884;2023-07-22T11:16:51;22.80;99.90
74822;DHT22;63353;48.702;8.884;2023-07-22T11:19:21;22.60;99.90
74822;DHT22;63353;48.702;8.884;2023-07-22T11:21:51;22.60;99.90
74822;DHT22;63353;48.702;8.884;2023-07-22T11:24:18;23.10;99.90
74822;DHT22;63353;48.702;8.884;2023-07-22T11:26:45;23.30;99.90
74822;DHT22;63353;48.702;8.884;2023-07-22T11:29:12;23.50;99.90
74822;DHT22;63353;48.702;8.884;2023-07-22T11:31:42;23.90;99.90
74822;DHT22;63353;48.702;8.884;2023-07-22T11:34:27;23.90;99.90
74822;DHT22;63353;48.702;8.884;2023-07-22T11:36:56;23.90;99.90
74822;DHT22;63353;48.702;8.884;2023-07-22T11:39:24;24.50;99.90
74822;DHT22;63353;48.702;8.884;2023-07-22T11:41:50;24.60;99.90
74822;DHT22;63353;48.702;8.884;2023-07-22T11:44:21;24.80;99.90
74822;DHT22;63353;48.702;8.884;2023-07-22T11:47:00;25.50;99.90
74822;DHT22;63353;48.702;8.884;2023-07-22T11:49:29;25.50;99.90
74822;DHT22;63353;48.702;8.884;2023-07-22T11:52:14;25.00;99.90
74822;DHT22;63353;48.702;8.884;2023-07-22T11:54:45;24.30;99.90
74822;DHT22;63353;48.702;8.884;2023-07-22T11:57:17;24.60;99.90
74822;DHT22;63353;48.702;8.884;2023-07-22T11:59:48;25.10;98.90
74822;DHT22;63353;48.702;8.884;2023-07-22T12:02:25;25.90;97.70
74822;DHT22;63353;48.702;8.884;2023-07-22T12:05:05;26.20;97.80
74822;DHT22;63353;48.702;8.884;2023-07-22T12:07:46;26.50;95.40
74822;DHT22;63353;48.702;8.884;2023-07-22T12:10:12;26.40;95.40
74822;DHT22;63353;48.702;8.884;2023-07-22T12:12:47;25.90;95.20
74822;DHT22;63353;48.702;8.884;2023-07-22T12:15:21;25.90;95.60
74822;DHT22;63353;48.702;8.884;2023-07-22T12:17:56;25.60;96.50
74822;DHT22;63353;48.702;8.884;2023-07-22T12:22:52;25.20;96.60
74822;DHT22;63353;48.702;8.884;2023-07-22T12:25:23;25.40;96.70
74822;DHT22;63353;48.702;8.884;2023-07-22T12:27:50;26.10;98.10
74822;DHT22;63353;48.702;8.884;2023-07-22T12:30:16;26.40;95.70
74822;DHT22;63353;48.702;8.884;2023-07-22T12:32:45;26.60;93.40
74822;DHT22;63353;48.702;8.884;2023-07-22T12:35:19;26.60;92.70
74822;DHT22;63353;48.702;8.884;2023-07-22T12:37:45;26.70;96.00
74822;DHT22;63353;48.702;8.884;2023-07-22T12:40:11;27.40;92.60
74822;DHT22;63353;48.702;8.884;2023-07-22T12:42:37;27.70;93.40
74822;DHT22;63353;48.702;8.884;2023-07-22T12:45:04;27.70;93.40
74822;DHT22;63353;48.702;8.884;2023-07-22T12:47:33;27.00;91.40
74822;DHT22;63353;48.702;8.884;2023-07-22T12:49:59;26.60;92.90
74822;DHT22;63353;48.702;8.884;2023-07-22T12:52:27;25.90;92.60
74822;DHT22;63353;48.702;8.884;2023-07-22T12:55:02;25.50;92.80
74822;DHT22;63353;48.702;8.884;2023-07-22T12:57:28;26.10;94.00
74822;DHT22;63353;48.702;8.884;2023-07-22T12:59:56;26.00;93.50
74822;DHT22;63353;48.702;8.884;2023-07-22T13:02:22;26.50;92.20
74822;DHT22;63353;48.702;8.884;2023-07-22T13:04:48;27.30;88.60
74822;DHT22;63353;48.702;8.884;2023-07-22T13:07:16;28.10;91.60
74822;DHT22;63353;48.702;8.884;2023-07-22T13:09:42;28.40;88.60
74822;DHT22;63353;48.702;8.884;2023-07-22T13:12:09;27.70;90.00
74822;DHT22;63353;48.702;8.884;2023-07-22T13:14:34;26.50;90.50
74822;DHT22;63353;48.702;8.884;2023-07-22T13:17:00;26.10;90.90
74822;DHT22;63353;48.702;8.884;2023-07-22T13:19:26;26.40;90.90
74822;DHT22;63353;48.702;8.884;2023-07-22T13:21:51;26.80;92.00
74822;DHT22;63353;48.702;8.884;2023-07-22T13:24:17;27.40;90.60
74822;DHT22;63353;48.702;8.884;2023-07-22T13:26:42;27.80;90.90
74822;DHT22;63353;48.702;8.884;2023-07-22T13:29:09;27.30;90.50
74822;DHT22;63353;48.702;8.884;2023-07-22T13:31:34;26.90;90.10
74822;DHT22;63353;48.702;8.884;2023-07-22T13:34:00;27.20;90.30
74822;DHT22;63353;48.702;8.884;2023-07-22T13:36:38;27.10;90.00
74822;DHT22;63353;48.702;8.884;2023-07-22T13:39:03;27.40;91.00
74822;DHT22;63353;48.702;8.884;2023-07-22T13:41:29;27.70;91.10
74822;DHT22;63353;48.702;8.884;2023-07-22T13:43:55;28.00;89.00
74822;DHT22;63353;48.702;8.884;2023-07-22T13:46:20;27.70;89.20
74822;DHT22;63353;48.702;8.884;2023-07-22T13:48:46;27.20;90.70
74822;DHT22;63353;48.702;8.884;2023-07-22T13:51:14;26.90;89.80
74822;DHT22;63353;48.702;8.884;2023-07-22T13:53:40;27.00;92.30
74822;DHT22;63353;48.702;8.884;2023-07-22T13:56:05;27.60;87.80
74822;DHT22;63353;48.702;8.884;2023-07-22T13:58:32;26.80;89.90
74822;DHT22;63353;48.702;8.884;2023-07-22T14:01:01;26.40;90.00
74822;DHT22;63353;48.702;8.884;2023-07-22T14:03:26;26.10;90.30
74822;DHT22;63353;48.702;8.884;2023-07-22T14:05:52;26.10;90.50
74822;DHT22;63353;48.702;8.884;2023-07-22T14:08:20;26.00;90.40
74822;DHT22;63353;48.702;8.884;2023-07-22T14:10:46;26.80;89.80
74822;DHT22;63353;48.702;8.884;2023-07-22T14:13:12;26.70;87.70
74822;DHT22;63353;48.702;8.884;2023-07-22T14:15:38;26.30;90.00
74822;DHT22;63353;48.702;8.884;2023-07-22T14:18:04;26.50;91.00
74822;DHT22;63353;48.702;8.884;2023-07-22T14:20:33;27.60;90.00
74822;DHT22;63353;48.702;8.884;2023-07-22T14:22:59;28.50;87.70
74822;DHT22;63353;48.702;8.884;2023-07-22T14:25:24;29.00;85.50
74822;DHT22;63353;48.702;8.884;2023-07-22T14:27:50;28.40;85.60
74822;DHT22;63353;48.702;8.884;2023-07-22T14:30:16;27.70;85.50
74822;DHT22;63353;48.702;8.884;2023-07-22T14:32:42;27.60;85.00
74822;DHT22;63353;48.702;8.884;2023-07-22T14:35:08;28.40;86.00
74822;DHT22;63353;48.702;8.884;2023-07-22T14:37:35;28.30;82.70
74822;DHT22;63353;48.702;8.884;2023-07-22T14:40:01;27.60;83.90
74822;DHT22;63353;48.702;8.884;2023-07-22T14:42:28;27.10;86.40
74822;DHT22;63353;48.702;8.884;2023-07-22T14:44:53;26.70;85.30
74822;DHT22;63353;48.702;8.884;2023-07-22T14:47:25;26.30;86.90
74822;DHT22;63353;48.702;8.884;2023-07-22T14:49:51;26.20;89.00
74822;DHT22;63353;48.702;8.884;2023-07-22T14:52:17;25.70;87.70
74822;DHT22;63353;48.702;8.884;2023-07-22T14:54:43;25.50;89.20
74822;DHT22;63353;48.702;8.884;2023-07-22T14:57:09;25.40;88.80
74822;DHT22;63353;48.702;8.884;2023-07-22T14:59:34;25.60;88.80
74822;DHT22;63353;48.702;8.884;2023-07-22T15:02:00;25.00;88.10
74822;DHT22;63353;48.702;8.884;2023-07-22T15:04:28;24.90;87.70
74822;DHT22;63353;48.702;8.884;2023-07-22T15:06:54;24.70;90.20
74822;DHT22;63353;48.702;8.884;2023-07-22T15:09:22;24.80;89.60
74822;DHT22;63353;48.702;8.884;2023-07-22T15:11:51;24.90;90.40
74822;DHT22;63353;48.702;8.884;2023-07-22T15:14:16;25.10;89.70
74822;DHT22;63353;48.702;8.884;2023-07-22T15:16:45;25.10;90.30
74822;DHT22;63353;48.702;8.884;2023-07-22T15:19:11;25.20;88.90
74822;DHT22;63353;48.702;8.884;2023-07-22T15:21:37;25.40;89.50
74822;DHT22;63353;48.702;8.884;2023-07-22T15:24:03;25.30;88.80
74822;DHT22;63353;48.702;8.884;2023-07-22T15:26:28;25.20;88.60
74822;DHT22;63353;48.702;8.884;2023-07-22T15:28:54;25.10;89.60
74822;DHT22;63353;48.702;8.884;2023-07-22T15:31:23;25.00;90.90
74822;DHT22;63353;48.702;8.884;2023-07-22T15:33:54;25.00;90.50
74822;DHT22;63353;48.702;8.884;2023-07-22T15:36:26;25.10;89.80
74822;DHT22;63353;48.702;8.884;2023-07-22T15:38:52;24.80;89.10